createdAt,value
2019-01-25T00:04:01.561Z,10.8
2019-01-25T00:09:01.472Z,11.1
2019-01-25T00:14:01.417Z,10.9
2019-01-25T00:19:01.408Z,11.0
2019-01-25T00:24:01.701Z,10.8
2019-01-25T00:29:01.416Z,10.7
2019-01-25T00:34:02.613Z,10.3
2019-01-25T00:39:01.468Z,11.1
2019-01-25T00:44:01.444Z,11.0
2019-01-25T00:49:01.424Z,10.7
2019-01-25T00:54:01.415Z,10.3
2019-01-25T00:59:01.739Z,10.6
2019-01-25T01:04:01.409Z,10.4
2019-01-25T01:09:01.414Z,10.3
2019-01-25T01:14:01.519Z,10.2
2019-01-25T01:19:01.453Z,10.3
2019-01-25T01:24:02.475Z,10.3
2019-01-25T01:29:01.473Z,10.5
2019-01-25T01:35:01.650Z,10.9
2019-01-25T01:40:01.518Z,11.2
2019-01-25T01:45:01.453Z,11.6
2019-01-25T01:50:01.565Z,12.1
2019-01-25T01:55:01.530Z,12.2
2019-01-25T02:00:01.461Z,11.7
2019-01-25T02:05:01.488Z,12.3
2019-01-25T02:10:01.421Z,12.0
2019-01-25T02:16:01.476Z,11.9
2019-01-25T02:21:01.411Z,11.8
2019-01-25T02:26:01.500Z,11.5
2019-01-25T02:31:01.496Z,10.7
2019-01-25T02:36:01.529Z,11.0
2019-01-25T02:41:02.450Z,10.7
2019-01-25T02:46:01.589Z,10.6
2019-01-25T02:51:01.452Z,10.7
2019-01-25T02:56:01.539Z,11.0
2019-01-25T03:01:01.415Z,10.9
2019-01-25T03:06:01.537Z,11.3
2019-01-25T03:16:02.747Z,10.8
2019-01-25T03:21:01.413Z,10.1
2019-01-25T03:26:02.466Z,10.4
2019-01-25T03:31:01.441Z,10.4
2019-01-25T03:42:01.522Z,10.8
2019-01-25T03:47:01.493Z,11.1
2019-01-25T03:52:01.426Z,11.0
2019-01-25T03:57:01.563Z,11.3
2019-01-25T04:02:01.452Z,11.3
2019-01-25T04:07:01.539Z,10.8
2019-01-25T04:12:01.407Z,10.5
2019-01-25T04:17:01.515Z,10.8
2019-01-25T04:22:01.411Z,11.0
2019-01-25T04:27:01.477Z,10.8
2019-01-25T04:32:01.409Z,10.3
2019-01-25T04:37:01.540Z,10.2
2019-01-25T04:42:01.733Z,9.8
2019-01-25T04:47:01.519Z,9.3
2019-01-25T04:52:01.417Z,9.3
2019-01-25T04:57:01.687Z,9.9
2019-01-25T05:03:01.471Z,10.4
2019-01-25T05:08:01.455Z,9.7
2019-01-25T05:13:01.396Z,9.8
2019-01-25T05:23:06.519Z,10.0
2019-01-25T05:28:01.522Z,10.6
2019-01-25T05:33:06.426Z,10.8
2019-01-25T05:38:01.505Z,11.9
2019-01-25T05:43:06.424Z,11.9
2019-01-25T05:48:01.577Z,11.4
2019-01-25T05:53:06.406Z,11.3
2019-01-25T06:03:01.547Z,10.5
2019-01-25T06:08:01.479Z,10.9
2019-01-25T06:20:01.147Z,11.1
2019-01-25T06:25:01.197Z,11.6
2019-01-25T06:30:01.305Z,12.0
2019-01-25T06:35:01.189Z,11.3
2019-01-25T06:40:01.137Z,11.7
2019-01-25T06:45:01.140Z,11.8
2019-01-25T06:50:01.169Z,12.4
2019-01-25T06:55:01.187Z,12.6
2019-01-25T07:00:01.137Z,12.6
2019-01-25T07:05:01.201Z,12.8
2019-01-25T07:10:01.166Z,12.8
2019-01-25T07:15:01.271Z,12.4
2019-01-25T07:20:01.194Z,12.9
2019-01-25T07:25:01.589Z,13.0
2019-01-25T07:30:01.530Z,12.7
2019-01-25T07:35:01.626Z,12.8
2019-01-25T07:40:01.187Z,13.2
2019-01-25T07:45:01.480Z,13.2
2019-01-25T07:50:01.540Z,13.4
2019-01-25T07:55:01.547Z,13.5
2019-01-25T08:00:01.350Z,13.4
2019-01-25T08:05:01.444Z,13.3
2019-01-25T08:10:01.254Z,12.6
2019-01-25T08:15:01.208Z,12.6
2019-01-25T08:20:01.275Z,13.5
2019-01-25T08:25:01.343Z,13.7
2019-01-25T08:30:06.405Z,13.8
2019-01-25T08:35:01.668Z,13.8
2019-01-25T08:40:01.145Z,13.3
2019-01-25T08:45:03.733Z,12.8
2019-01-25T08:50:01.987Z,12.3
2019-01-25T08:55:01.456Z,12.5
2019-01-25T09:00:01.163Z,12.3
2019-01-25T09:05:01.221Z,12.6
2019-01-25T09:10:01.330Z,12.4
2019-01-25T09:15:01.204Z,12.3
2019-01-25T09:20:01.120Z,13.0
2019-01-25T09:25:01.285Z,13.1
2019-01-25T09:30:01.151Z,13.0
2019-01-25T09:35:01.219Z,13.6
2019-01-25T09:40:01.154Z,14.1
2019-01-25T09:45:01.225Z,13.8
2019-01-25T09:50:01.162Z,13.8
2019-01-25T09:55:01.322Z,13.3
2019-01-25T10:00:01.182Z,13.4
2019-01-25T10:05:01.233Z,13.9
2019-01-25T10:10:01.753Z,13.6
2019-01-25T10:15:01.478Z,13.8
2019-01-25T10:20:01.237Z,14.5
2019-01-25T10:25:01.174Z,14.2
2019-01-25T10:30:02.345Z,15.0
2019-01-25T10:35:01.322Z,15.5
2019-01-25T10:45:05.035Z,15.0
2019-01-25T10:50:02.412Z,15.1
2019-01-25T10:55:01.320Z,14.4
2019-01-25T11:00:01.488Z,14.6
2019-01-25T11:05:01.420Z,14.3
2019-01-25T11:10:01.188Z,14.4
2019-01-25T11:15:01.982Z,14.1
2019-01-25T11:20:01.217Z,14.1
2019-01-25T11:25:01.323Z,14.1
2019-01-25T11:30:01.244Z,14.0
2019-01-25T11:35:01.451Z,14.1
2019-01-25T11:40:01.276Z,14.3
2019-01-25T11:45:01.319Z,14.7
2019-01-25T11:55:01.321Z,13.8
2019-01-25T12:00:01.221Z,14.1
2019-01-25T12:05:01.381Z,14.4
2019-01-25T12:10:01.271Z,13.2
2019-01-25T12:15:01.345Z,13.2
2019-01-25T12:20:01.271Z,14.0
2019-01-25T12:25:01.545Z,13.8
2019-01-25T12:30:01.532Z,14.2
2019-01-25T12:35:07.594Z,14.4
2019-01-25T12:40:01.563Z,13.9
2019-01-25T12:45:01.364Z,14.0
2019-01-25T12:50:01.260Z,14.2
2019-01-25T12:55:01.310Z,13.8
2019-01-25T13:00:01.254Z,13.8
2019-01-25T13:05:01.321Z,13.9
2019-01-25T13:10:01.293Z,13.7
2019-01-25T13:15:01.358Z,13.6
2019-01-25T13:20:01.292Z,14.1
2019-01-25T13:25:01.358Z,14.2
2019-01-25T13:30:01.358Z,13.9
2019-01-25T13:35:01.618Z,14.1
2019-01-25T13:40:01.316Z,14.3
2019-01-25T13:45:01.515Z,14.1
2019-01-25T13:50:01.482Z,13.6
2019-01-25T13:55:01.365Z,13.7
2019-01-25T14:00:01.341Z,13.2
2019-01-25T14:05:01.452Z,13.5
2019-01-25T14:10:01.455Z,13.0
2019-01-25T14:15:01.384Z,12.5
2019-01-25T14:20:01.314Z,12.0
2019-01-25T14:25:03.087Z,12.7
2019-01-25T14:30:02.318Z,12.1
2019-01-25T14:35:01.351Z,11.5
2019-01-25T14:40:01.355Z,11.5
2019-01-25T14:45:01.423Z,11.9
2019-01-25T14:50:01.299Z,11.6
2019-01-25T14:55:01.363Z,12.1
2019-01-25T15:00:01.308Z,12.4
2019-01-25T15:05:01.477Z,12.2
2019-01-25T15:10:01.372Z,12.3
2019-01-25T15:15:01.416Z,12.6
2019-01-25T15:20:01.396Z,11.5
2019-01-25T15:25:01.418Z,11.6
2019-01-25T15:30:01.340Z,11.7
2019-01-25T15:35:01.479Z,11.2
2019-01-25T15:40:01.336Z,11.3
2019-01-25T15:45:01.704Z,12.0
2019-01-25T15:50:01.368Z,11.6
2019-01-25T15:55:01.415Z,11.8
2019-01-25T16:00:01.430Z,11.6
2019-01-25T16:05:01.454Z,11.5
2019-01-25T16:10:01.390Z,11.8
2019-01-25T16:15:01.483Z,12.3
2019-01-25T16:20:01.373Z,13.1
2019-01-25T16:25:01.453Z,13.3
2019-01-25T16:30:01.456Z,13.4
2019-01-25T16:35:01.454Z,13.5
2019-01-25T16:40:01.381Z,13.9
2019-01-25T16:45:01.544Z,13.3
2019-01-25T16:50:01.385Z,13.5
2019-01-25T16:55:02.664Z,13.4
2019-01-25T17:00:01.372Z,12.8
2019-01-25T17:10:01.519Z,13.1
2019-01-25T17:15:06.502Z,12.8
2019-01-25T17:20:01.386Z,13.0
2019-01-25T17:25:01.431Z,13.2
2019-01-25T17:30:01.424Z,12.9
2019-01-25T17:35:01.436Z,13.5
2019-01-25T17:40:01.437Z,13.8
2019-01-25T17:45:01.501Z,14.7
2019-01-25T17:50:01.342Z,15.0
2019-01-25T17:55:01.460Z,15.1
2019-01-25T18:00:01.514Z,13.9
2019-01-25T18:05:01.443Z,14.0
2019-01-25T18:10:01.388Z,13.8
2019-01-25T18:15:01.390Z,13.6
2019-01-25T18:20:01.391Z,14.1
2019-01-25T18:25:02.487Z,15.1
2019-01-25T18:30:01.464Z,14.4
2019-01-25T18:35:01.584Z,14.2
2019-01-25T18:40:01.415Z,13.5
2019-01-25T18:45:01.528Z,13.8
2019-01-25T18:50:01.737Z,12.6
2019-01-25T18:55:01.467Z,12.9
2019-01-25T19:00:01.434Z,12.5
2019-01-25T19:05:01.553Z,12.4
2019-01-25T19:10:01.423Z,10.8
2019-01-25T19:15:05.142Z,10.6
2019-01-25T19:20:01.427Z,9.7
2019-01-25T19:25:01.475Z,9.8
2019-01-25T19:30:01.396Z,9.4
2019-01-25T19:35:01.637Z,9.4
2019-01-25T19:40:01.862Z,9.1
2019-01-25T19:46:01.558Z,9.1
2019-01-25T19:51:06.416Z,8.9
2019-01-25T19:56:01.519Z,8.6
2019-01-25T20:01:01.458Z,8.1
2019-01-25T20:06:01.593Z,8.1
2019-01-25T20:11:01.487Z,8.1
2019-01-25T20:16:01.530Z,8.1
2019-01-25T20:21:01.469Z,8.0
2019-01-25T20:26:01.499Z,8.4
2019-01-25T20:31:01.463Z,8.6
2019-01-25T20:36:01.578Z,8.2
2019-01-25T20:41:01.413Z,8.4
2019-01-25T20:56:01.516Z,7.2
2019-01-25T21:01:01.779Z,7.3
2019-01-25T21:06:01.593Z,6.2
2019-01-25T21:11:01.457Z,6.2
2019-01-25T21:16:01.475Z,5.9
2019-01-25T21:21:01.460Z,4.9
2019-01-25T21:26:01.538Z,4.8
2019-01-25T21:31:01.421Z,4.5
2019-01-25T21:36:01.483Z,4.4
2019-01-25T21:41:01.444Z,4.4
2019-01-25T21:46:01.492Z,4.6
2019-01-25T21:51:01.488Z,4.5
2019-01-25T21:56:01.548Z,3.7
2019-01-25T22:01:01.449Z,3.6
2019-01-25T22:06:01.534Z,3.6
2019-01-25T22:11:01.467Z,3.0
2019-01-25T22:16:01.586Z,2.6
2019-01-25T22:21:01.462Z,2.5
2019-01-25T22:26:01.485Z,2.5
2019-01-25T22:31:01.478Z,2.3
2019-01-25T22:36:06.484Z,2.3
2019-01-25T22:47:01.519Z,1.9
2019-01-25T22:52:01.455Z,1.9
2019-01-25T22:57:01.479Z,1.9
2019-01-25T23:07:01.553Z,1.7
2019-01-25T23:12:01.510Z,1.5
2019-01-25T23:17:01.507Z,1.3
2019-01-25T23:22:01.462Z,1.3
2019-01-25T23:27:01.537Z,0.9
2019-01-25T23:32:01.470Z,1.0
2019-01-25T23:37:01.524Z,1.0
2019-01-25T23:42:01.459Z,1.0
2019-01-25T23:47:01.525Z,1.0
